Time;durP1;ratioP1;P1;durP2;ratioP2;P2;SDS_P1;SDS_P2;PMS_P1;PMS_P2;Temp;Humidity;BMP_temperature;BMP_pressure;BME280_temperature;BME280_humidity;BME280_pressure;Samples;Min_cycle;Max_cycle;Signal;HPM_P1;HPM_P2
2023/06/23 00:00:59;;;;;;;12.80;9.13;;;;;;;14.34;100.00;101692.63;4998155;28;20034;-83
2023/06/23 00:03:25;;;;;;;13.88;8.93;;;;;;;14.33;100.00;101699.13;5014326;28;20445;-83
2023/06/23 00:05:50;;;;;;;13.53;9.30;;;;;;;14.32;100.00;101702.91;4997812;28;20092;-83
2023/06/23 00:08:15;;;;;;;15.97;9.30;;;;;;;14.27;100.00;101706.31;5015252;28;20069;-83
2023/06/23 00:10:43;;;;;;;14.75;9.60;;;;;;;14.25;100.00;101711.16;5013194;28;20121;-83
2023/06/23 00:13:09;;;;;;;13.43;9.53;;;;;;;14.27;100.00;101711.75;5013929;28;20485;-83
2023/06/23 00:15:35;;;;;;;17.65;10.48;;;;;;;14.28;100.00;101708.00;5014032;28;20057;-83
2023/06/23 00:18:00;;;;;;;17.27;10.60;;;;;;;14.27;100.00;101713.66;4997527;28;20057;-83
2023/06/23 00:20:26;;;;;;;17.60;11.00;;;;;;;14.21;100.00;101723.56;4997190;28;20524;-83
2023/06/23 00:22:52;;;;;;;20.50;11.10;;;;;;;14.19;100.00;101721.06;5013766;28;20326;-83
2023/06/23 00:25:18;;;;;;;16.92;11.23;;;;;;;14.19;100.00;101731.13;5013571;28;20034;-83
2023/06/23 00:27:45;;;;;;;22.23;11.75;;;;;;;14.15;100.00;101725.25;5015206;28;20101;-83
2023/06/23 00:30:11;;;;;;;19.47;11.67;;;;;;;14.16;100.00;101726.13;5013588;28;20033;-83
2023/06/23 00:32:38;;;;;;;25.75;12.65;;;;;;;14.12;100.00;101735.78;5013434;28;20148;-83
2023/06/23 00:35:04;;;;;;;22.35;13.23;;;;;;;14.13;100.00;101743.75;4997232;28;20481;-83
2023/06/23 00:37:32;;;;;;;23.20;12.98;;;;;;;14.12;100.00;101735.78;5013620;28;20168;-83
2023/06/23 00:40:01;;;;;;;21.00;13.23;;;;;;;14.11;100.00;101747.75;5012866;28;20037;-82
2023/06/23 00:42:26;;;;;;;23.10;13.97;;;;;;;14.10;100.00;101751.53;4996872;28;20049;-83
2023/06/23 00:44:53;;;;;;;23.65;14.00;;;;;;;14.08;100.00;101756.38;4996971;28;20037;-83
2023/06/23 00:47:18;;;;;;;27.00;13.70;;;;;;;14.10;100.00;101746.06;4997133;28;20037;-83
2023/06/23 00:49:45;;;;;;;23.40;14.10;;;;;;;14.08;100.00;101743.56;4997255;28;20030;-83
2023/06/23 00:52:10;;;;;;;25.80;15.15;;;;;;;14.07;100.00;101752.81;5012978;28;20026;-83
2023/06/23 00:54:36;;;;;;;26.90;15.37;;;;;;;14.10;100.00;101754.25;4996812;28;20040;-83
2023/06/23 00:57:05;;;;;;;29.57;15.37;;;;;;;14.11;100.00;101764.94;4996865;28;20057;-83
2023/06/23 00:59:31;;;;;;;27.13;16.30;;;;;;;14.09;100.00;101766.25;5013103;28;20429;-83
2023/06/23 01:02:01;;;;;;;27.20;16.30;;;;;;;14.10;100.00;101778.81;5013118;28;20038;-83
2023/06/23 01:04:34;;;;;;;33.85;17.27;;;;;;;14.09;100.00;101778.00;5012870;28;20112;-83
2023/06/23 01:07:17;;;;;;;29.33;17.00;;;;;;;14.06;100.00;101788.50;5012933;28;20414;-83
2023/06/23 01:10:02;;;;;;;27.17;16.20;;;;;;;14.04;100.00;101791.47;5012452;28;20029;-83
2023/06/23 01:12:52;;;;;;;33.22;18.58;;;;;;;14.04;100.00;101799.66;5013888;28;20438;-83
2023/06/23 01:15:29;;;;;;;36.37;18.73;;;;;;;14.06;100.00;101797.53;5013831;28;20036;-83
2023/06/23 01:18:12;;;;;;;42.42;21.23;;;;;;;14.06;100.00;101796.69;5012720;28;20036;-83
2023/06/23 01:20:41;;;;;;;43.15;21.05;;;;;;;14.06;100.00;101792.06;5012788;28;20057;-83
2023/06/23 01:23:35;;;;;;;38.72;21.15;;;;;;;14.05;100.00;101795.84;5012533;28;20092;-83
2023/06/23 01:26:14;;;;;;;36.47;20.52;;;;;;;14.04;100.00;101788.72;5012566;28;20087;-83
2023/06/23 01:28:42;;;;;;;43.57;23.47;;;;;;;14.03;100.00;101796.06;5012960;28;20029;-83
2023/06/23 01:31:13;;;;;;;39.58;22.13;;;;;;;14.02;100.00;101790.81;5012445;28;20037;-83
2023/06/23 01:33:53;;;;;;;43.92;22.33;;;;;;;14.01;100.00;101800.03;5012639;28;20140;-83
2023/06/23 01:36:38;;;;;;;40.42;22.65;;;;;;;13.99;100.00;101808.44;5012467;28;20121;-83
2023/06/23 01:39:07;;;;;;;45.20;23.83;;;;;;;13.99;100.00;101805.72;5011876;28;20469;-83
2023/06/23 01:41:40;;;;;;;47.53;23.97;;;;;;;13.99;100.00;101800.25;5013677;28;20057;-83
2023/06/23 01:44:14;;;;;;;46.53;24.00;;;;;;;13.99;100.00;101815.81;5012368;28;20039;-83
2023/06/23 01:46:43;;;;;;;44.30;24.60;;;;;;;13.98;100.00;101811.38;5012286;28;20029;-83
2023/06/23 01:49:13;;;;;;;43.55;24.33;;;;;;;13.97;100.00;101807.84;5013691;28;20041;-83
2023/06/23 01:51:44;;;;;;;46.92;24.13;;;;;;;13.98;100.00;101816.84;5012363;28;20172;-83
2023/06/23 01:54:15;;;;;;;47.13;24.73;;;;;;;13.96;100.00;101821.69;5013548;28;20030;-83
2023/06/23 01:56:42;;;;;;;46.63;25.20;;;;;;;13.95;100.00;101817.28;5013483;28;20034;-82
2023/06/23 01:59:13;;;;;;;42.60;24.52;;;;;;;13.93;100.00;101824.84;5012052;28;20057;-83
2023/06/23 02:01:40;;;;;;;49.90;23.65;;;;;;;13.90;100.00;101828.84;5012903;28;20041;-83
2023/06/23 02:04:06;;;;;;;49.15;26.27;;;;;;;13.90;100.00;101833.47;5012025;28;20517;-83
2023/06/23 02:06:35;;;;;;;43.67;23.97;;;;;;;13.86;100.00;101833.03;4996082;28;20091;-83
2023/06/23 02:09:03;;;;;;;52.30;25.70;;;;;;;13.85;100.00;101828.66;5011819;28;20033;-83
2023/06/23 02:11:32;;;;;;;46.60;25.60;;;;;;;13.85;100.00;101839.56;5012165;28;20378;-83
2023/06/23 02:13:59;;;;;;;46.75;24.83;;;;;;;13.83;100.00;101841.66;4979738;28;20038;-83
2023/06/23 02:16:28;;;;;;;44.30;24.60;;;;;;;13.78;100.00;101852.38;5012409;28;20041;-83
2023/06/23 02:18:56;;;;;;;46.07;25.30;;;;;;;13.77;100.00;101851.50;5013635;28;20095;-83
2023/06/23 02:21:23;;;;;;;46.67;24.55;;;;;;;13.75;100.00;101860.97;5016121;28;20041;-83
2023/06/23 02:23:49;;;;;;;45.58;25.00;;;;;;;13.75;100.00;101870.00;5015801;28;20038;-83
2023/06/23 02:26:15;;;;;;;51.55;24.60;;;;;;;13.72;100.00;101867.69;5015626;28;20190;-83
2023/06/23 02:28:47;;;;;;;44.72;24.38;;;;;;;13.70;100.00;101861.63;4999606;28;20030;-83
2023/06/23 02:31:13;;;;;;;39.97;24.87;;;;;;;13.67;100.00;101865.59;5016019;28;20111;-83
2023/06/23 02:33:38;;;;;;;45.92;25.75;;;;;;;13.67;100.00;101868.34;5015740;28;20044;-83
2023/06/23 02:36:06;;;;;;;47.90;26.03;;;;;;;13.68;100.00;101875.47;4999487;28;20026;-83
2023/06/23 02:38:36;;;;;;;53.00;26.05;;;;;;;13.66;100.00;101885.72;5015786;28;20033;-83
2023/06/23 02:41:04;;;;;;;48.65;26.48;;;;;;;13.63;100.00;101891.59;4983539;28;20050;-83
2023/06/23 02:43:35;;;;;;;48.03;27.02;;;;;;;13.61;100.00;101901.91;5017086;28;20062;-83
2023/06/23 02:46:03;;;;;;;53.08;27.35;;;;;;;13.58;100.00;101896.88;5017142;28;20092;-83
2023/06/23 02:48:40;;;;;;;54.97;27.87;;;;;;;13.58;100.00;101896.00;5015737;28;20025;-83
2023/06/23 02:51:09;;;;;;;54.45;27.75;;;;;;;13.60;100.00;101894.75;5015278;28;20041;-83
2023/06/23 02:53:46;;;;;;;52.53;28.35;;;;;;;13.59;100.00;101895.81;5015049;28;20116;-83
2023/06/23 02:56:17;;;;;;;53.78;29.20;;;;;;;13.58;100.00;101896.88;5015660;28;20030;-83
2023/06/23 02:58:46;;;;;;;59.92;29.42;;;;;;;13.56;100.00;101901.69;5016837;28;20488;-83
2023/06/23 03:01:14;;;;;;;51.27;28.27;;;;;;;13.54;100.00;101911.09;5016461;28;20033;-83
2023/06/23 03:03:42;;;;;;;56.33;29.40;;;;;;;13.56;100.00;101909.84;4999283;28;20030;-83
2023/06/23 03:06:17;;;;;;;62.47;30.70;;;;;;;13.57;100.00;101910.69;5016500;28;20044;-83
2023/06/23 03:08:43;;;;;;;57.83;30.10;;;;;;;13.59;100.00;101917.63;5016379;28;20057;-83
2023/06/23 03:11:09;;;;;;;61.53;31.53;;;;;;;13.57;100.00;101910.69;4998198;28;20080;-83
2023/06/23 03:13:34;;;;;;;62.20;30.98;;;;;;;13.55;100.00;101905.44;5015203;28;20367;-83
2023/06/23 03:16:06;;;;;;;72.60;32.57;;;;;;;13.56;100.00;101915.31;5014825;28;20088;-83
2023/06/23 03:18:34;;;;;;;62.28;31.83;;;;;;;13.55;100.00;101918.25;5014684;28;20037;-83
2023/06/23 03:21:03;;;;;;;70.57;32.37;;;;;;;13.56;100.00;101909.03;5016270;28;20057;-83
2023/06/23 03:23:34;;;;;;;66.03;33.50;;;;;;;13.56;100.00;101915.31;5014751;28;20034;-83
2023/06/23 03:26:01;;;;;;;62.90;32.28;;;;;;;13.56;100.00;101917.22;5016082;28;20025;-83
2023/06/23 03:28:28;;;;;;;61.55;33.20;;;;;;;13.56;100.00;101925.38;5015937;28;20038;-83
2023/06/23 03:31:00;;;;;;;64.07;32.53;;;;;;;13.58;100.00;101928.72;5013732;28;20030;-83
2023/06/23 03:33:40;;;;;;;66.57;31.63;;;;;;;13.55;100.00;101927.25;5015885;28;20105;-82
2023/06/23 03:36:20;;;;;;;64.45;32.45;;;;;;;13.55;100.00;101926.44;5015025;28;20375;-83
2023/06/23 03:39:17;;;;;;;65.82;33.42;;;;;;;13.54;100.00;101922.88;5014441;28;20029;-83
2023/06/23 03:41:43;;;;;;;65.93;30.92;;;;;;;13.54;100.00;101916.56;5014318;28;20117;-84
2023/06/23 03:44:45;;;;;;;63.30;31.88;;;;;;;13.53;100.00;101920.34;5014646;28;20054;-83
2023/06/23 03:47:15;;;;;;;56.13;29.53;;;;;;;13.50;100.00;101916.16;4984011;28;20049;-83
2023/06/23 03:49:54;;;;;;;60.78;31.25;;;;;;;13.52;100.00;101922.22;5015341;28;20038;-83
2023/06/23 03:52:21;;;;;;;59.67;32.00;;;;;;;13.56;100.00;101920.75;5015395;28;20033;-83
2023/06/23 03:54:49;;;;;;;56.63;30.40;;;;;;;13.58;100.00;101923.28;5014250;28;20092;-83
2023/06/23 03:57:19;;;;;;;61.80;31.95;;;;;;;13.57;100.00;101918.88;4998350;28;20417;-83
2023/06/23 03:59:47;;;;;;;63.17;31.73;;;;;;;13.58;100.00;101929.59;5014093;28;20605;-83
2023/06/23 04:02:16;;;;;;;60.97;31.27;;;;;;;13.58;100.00;101932.31;5013972;28;20120;-83
2023/06/23 04:04:44;;;;;;;61.80;31.33;;;;;;;13.59;100.00;101938.59;4982012;28;20076;-83
2023/06/23 04:07:11;;;;;;;59.40;29.52;;;;;;;13.61;100.00;101945.53;5014100;28;20037;-83
2023/06/23 04:09:40;;;;;;;56.53;31.27;;;;;;;13.64;100.00;101938.78;5013397;28;20033;-83
2023/06/23 04:12:10;;;;;;;62.13;30.40;;;;;;;13.64;100.00;101942.38;5013689;28;20037;-82
2023/06/23 04:14:38;;;;;;;58.78;30.73;;;;;;;13.66;100.00;101951.19;5013826;28;20037;-83
2023/06/23 04:17:06;;;;;;;59.72;30.92;;;;;;;13.69;100.00;101947.22;4997486;28;20099;-83
2023/06/23 04:19:34;;;;;;;59.30;30.27;;;;;;;13.69;100.00;101958.94;5015349;28;20042;-83
2023/06/23 04:22:02;;;;;;;58.75;30.25;;;;;;;13.69;100.00;101952.66;5013926;28;20061;-83
2023/06/23 04:24:29;;;;;;;60.27;30.00;;;;;;;13.74;100.00;101962.94;5013684;28;20478;-83
2023/06/23 04:26:56;;;;;;;54.75;29.92;;;;;;;13.76;100.00;101964.41;5013684;28;20029;-83
2023/06/23 04:29:24;;;;;;;58.75;30.17;;;;;;;13.80;100.00;101967.56;5013666;28;20057;-83
2023/06/23 04:31:52;;;;;;;53.53;29.85;;;;;;;13.82;100.00;101963.56;5015008;28;20025;-83
2023/06/23 04:34:18;;;;;;;57.20;29.83;;;;;;;13.85;100.00;101971.34;5013493;28;20070;-83
2023/06/23 04:36:47;;;;;;;59.77;30.00;;;;;;;13.89;100.00;101974.47;5013442;28;20537;-83
2023/06/23 04:39:27;;;;;;;57.10;29.63;;;;;;;13.93;100.00;101980.34;5012930;28;20125;-83
2023/06/23 04:41:56;;;;;;;52.90;29.20;;;;;;;13.96;100.00;101975.31;5014456;28;20029;-83
2023/06/23 04:44:27;;;;;;;54.92;29.20;;;;;;;13.99;100.00;101977.63;5013346;28;20044;-83
2023/06/23 04:46:57;;;;;;;52.13;29.15;;;;;;;14.05;100.00;101986.84;5013333;28;20104;-83
2023/06/23 04:49:27;;;;;;;52.25;28.42;;;;;;;14.08;100.00;101991.88;5014331;28;20074;-83
2023/06/23 04:51:53;;;;;;;54.13;29.67;;;;;;;14.15;100.00;101979.06;5014243;28;20030;-83
2023/06/23 04:54:25;;;;;;;51.50;29.20;;;;;;;14.20;100.00;101983.91;5014221;28;20478;-83
2023/06/23 04:56:59;;;;;;;56.55;30.55;;;;;;;14.24;100.00;101984.31;5012996;28;20057;-83
2023/06/23 04:59:27;;;;;;;57.13;30.45;;;;;;;14.30;100.00;101992.50;5013236;28;20038;-83
2023/06/23 05:01:54;;;;;;;55.67;30.48;;;;;;;14.36;100.00;101996.25;5012825;28;20037;-83
2023/06/23 05:04:21;;;;;;;59.80;32.42;;;;;;;14.43;100.00;101999.00;5013079;28;20061;-83
2023/06/23 05:06:47;;;;;;;59.67;30.43;;;;;;;14.47;100.00;102009.28;5012809;28;20134;-83
2023/06/23 05:09:15;;;;;;;61.05;32.25;;;;;;;14.53;100.00;102008.41;4996225;28;20474;-83
2023/06/23 05:11:43;;;;;;;57.47;30.88;;;;;;;14.59;100.00;102017.66;5012826;28;20029;-83
2023/06/23 05:14:08;;;;;;;59.60;31.75;;;;;;;14.66;100.00;102015.78;5012861;28;20092;-83
2023/06/23 05:16:35;;;;;;;57.13;30.83;;;;;;;14.69;100.00;102022.69;5012830;28;20037;-83
2023/06/23 05:19:07;;;;;;;59.83;31.90;;;;;;;14.76;100.00;102017.22;5012786;28;20279;-83
2023/06/23 05:21:33;;;;;;;60.97;32.22;;;;;;;14.82;100.00;102024.53;5013966;28;20028;-83
2023/06/23 05:24:00;;;;;;;58.63;32.22;;;;;;;14.87;100.00;102028.31;4980325;28;20543;-83
2023/06/23 05:26:33;;;;;;;58.03;32.60;;;;;;;14.94;100.00;102030.19;5012619;28;20116;-82
2023/06/23 05:29:03;;;;;;;61.42;33.15;;;;;;;15.01;100.00;102033.72;4997236;28;20034;-83
2023/06/23 05:31:32;;;;;;;64.07;31.53;;;;;;;15.04;100.00;102028.69;5013734;28;20065;-82
2023/06/23 05:34:00;;;;;;;62.28;33.85;;;;;;;15.11;100.00;102036.03;5013674;28;20030;-83
2023/06/23 05:36:28;;;;;;;61.40;31.85;;;;;;;15.20;100.00;102040.19;4996548;28;20030;-82
2023/06/23 05:38:55;;;;;;;59.40;32.72;;;;;;;15.26;100.00;102039.28;5012557;28;20096;-84
2023/06/23 05:41:20;;;;;;;57.75;32.00;;;;;;;15.35;100.00;102035.25;4995782;28;20030;-83
2023/06/23 05:43:46;;;;;;;60.73;33.07;;;;;;;15.44;100.00;102041.31;4979772;28;20136;-82
2023/06/23 05:46:14;;;;;;;61.37;33.30;;;;;;;15.50;100.00;102039.59;4996004;28;20030;-84
2023/06/23 05:48:51;;;;;;;62.65;32.65;;;;;;;15.59;100.00;102047.34;5012849;28;20430;-83
2023/06/23 05:51:22;;;;;;;69.05;33.60;;;;;;;15.65;100.00;102048.34;5012467;28;20037;-82
2023/06/23 05:53:54;;;;;;;61.92;33.10;;;;;;;15.72;100.00;102051.88;5014857;28;20489;-82
2023/06/23 05:56:32;;;;;;;63.07;32.70;;;;;;;15.81;100.00;102048.91;5016249;28;20060;-82
2023/06/23 05:59:05;;;;;;;58.53;32.28;;;;;;;15.88;100.00;102057.91;5017534;28;20106;-83
2023/06/23 06:01:34;;;;;;;65.35;34.30;;;;;;;15.96;100.00;102061.22;5017653;28;20041;-82
2023/06/23 06:04:06;;;;;;;61.58;34.55;;;;;;;16.04;100.00;102065.56;5016158;28;20022;-82
2023/06/23 06:06:34;;;;;;;56.47;31.95;;;;;;;16.12;100.00;102061.72;5016629;28;20026;-82
2023/06/23 06:09:01;;;;;;;59.70;32.80;;;;;;;16.20;100.00;102057.88;5000162;28;20033;-84
2023/06/23 06:11:28;;;;;;;62.50;34.40;;;;;;;16.29;100.00;102068.31;4999575;28;20034;-83
2023/06/23 06:13:55;;;;;;;57.33;28.92;;;;;;;16.35;100.00;102074.78;4999779;28;20034;-82
2023/06/23 06:16:22;;;;;;;58.47;31.45;;;;;;;16.46;100.00;102074.06;5016770;28;20462;-83
2023/06/23 06:18:50;;;;;;;58.05;31.50;;;;;;;16.61;100.00;102078.38;5016712;28;20033;-83
2023/06/23 06:21:17;;;;;;;53.37;30.07;;;;;;;16.72;100.00;102072.13;5015658;28;20038;-83
2023/06/23 06:23:45;;;;;;;51.75;29.40;;;;;;;16.82;100.00;102074.34;4999443;28;20117;-83
2023/06/23 06:26:13;;;;;;;47.28;28.15;;;;;;;16.89;100.00;102071.56;5016734;28;20525;-83
2023/06/23 06:28:41;;;;;;;47.75;28.98;;;;;;;16.90;100.00;102073.22;4999686;28;20367;-82
2023/06/23 06:31:07;;;;;;;51.75;28.55;;;;;;;16.93;100.00;102075.53;5017007;28;20037;-84
2023/06/23 06:33:35;;;;;;;44.10;26.53;;;;;;;16.95;100.00;102082.47;5016950;28;20446;-83
2023/06/23 06:36:04;;;;;;;48.78;27.90;;;;;;;16.94;100.00;102088.16;5015379;28;20133;-83
2023/06/23 06:38:34;;;;;;;48.97;27.00;;;;;;;16.92;100.00;102088.41;5015420;28;20096;-82
2023/06/23 06:41:07;;;;;;;49.63;29.48;;;;;;;16.98;100.00;102100.34;4999306;28;20030;-82
2023/06/23 06:43:34;;;;;;;48.97;28.63;;;;;;;17.03;100.00;102097.75;5015174;28;20449;-82
2023/06/23 06:46:04;;;;;;;50.40;28.50;;;;;;;17.15;100.00;102100.56;4999321;28;20033;-82
2023/06/23 06:48:33;;;;;;;48.08;28.48;;;;;;;17.26;100.00;102099.81;5016893;28;20084;-83
2023/06/23 06:51:01;;;;;;;44.47;27.98;;;;;;;17.38;100.00;102110.00;5014880;28;20030;-84
2023/06/23 06:53:28;;;;;;;49.42;28.45;;;;;;;17.48;100.00;102118.50;5014778;28;20117;-83
2023/06/23 06:55:54;;;;;;;45.35;28.70;;;;;;;17.57;100.00;102119.03;5014847;28;20048;-83
2023/06/23 06:58:20;;;;;;;46.43;27.30;;;;;;;17.58;100.00;102109.75;4998238;28;20164;-83
2023/06/23 07:00:46;;;;;;;43.10;27.00;;;;;;;17.55;100.00;102111.03;5016518;28;20469;-83
2023/06/23 07:03:13;;;;;;;43.40;26.35;;;;;;;17.58;100.00;102107.00;5015244;28;20470;-83
2023/06/23 07:05:39;;;;;;;39.83;24.83;;;;;;;17.63;100.00;102118.97;5014922;28;20029;-83
2023/06/23 07:08:05;;;;;;;42.38;26.35;;;;;;;17.86;100.00;102111.88;5014847;28;20524;-83
2023/06/23 07:10:32;;;;;;;37.88;24.98;;;;;;;18.02;100.00;102124.13;4998665;28;20064;-83
2023/06/23 07:12:58;;;;;;;38.83;24.08;;;;;;;18.08;100.00;102127.88;4998803;28;20033;-83
2023/06/23 07:15:23;;;;;;;34.53;23.43;;;;;;;18.10;100.00;102125.72;5014896;28;20436;-83
2023/06/23 07:17:49;;;;;;;33.67;23.17;;;;;;;18.09;100.00;102124.06;5016207;28;20413;-83
2023/06/23 07:20:15;;;;;;;35.13;22.00;;;;;;;18.05;100.00;102123.66;5014703;28;20462;-83
2023/06/23 07:22:40;;;;;;;33.50;22.58;;;;;;;18.05;100.00;102121.78;5015996;28;20091;-83
2023/06/23 07:25:06;;;;;;;31.07;21.07;;;;;;;18.09;100.00;102135.03;5014543;28;20033;-82
2023/06/23 07:27:31;;;;;;;30.87;19.10;;;;;;;18.05;100.00;102142.91;5014993;28;20121;-83
2023/06/23 07:29:58;;;;;;;29.75;19.85;;;;;;;18.09;100.00;102143.28;5015788;28;20025;-83
2023/06/23 07:32:24;;;;;;;28.90;19.53;;;;;;;18.06;100.00;102136.34;5014785;28;20034;-83
2023/06/23 07:34:50;;;;;;;32.53;19.77;;;;;;;18.07;100.00;102143.50;4998228;28;20034;-83
2023/06/23 07:37:15;;;;;;;28.00;19.75;;;;;;;18.12;100.00;102140.06;5015522;28;20116;-82
2023/06/23 07:39:40;;;;;;;28.43;19.73;;;;;;;18.16;100.00;102142.09;5014240;28;20120;-83
2023/06/23 07:42:06;;;;;;;29.13;19.93;;;;;;;18.22;100.00;102148.56;5014464;28;20054;-83
2023/06/23 07:44:32;;;;;;;30.67;19.50;;;;;;;18.25;100.00;102150.84;5014746;28;20026;-83
2023/06/23 07:46:58;;;;;;;27.92;18.33;;;;;;;18.29;100.00;102151.19;5030953;28;20034;-82
2023/06/23 07:49:24;;;;;;;26.55;17.92;;;;;;;18.33;100.00;102142.25;5014304;28;20044;-83
2023/06/23 07:51:49;;;;;;;27.10;15.70;;;;;;;18.41;100.00;102149.31;5014317;28;20042;-83
2023/06/23 07:54:20;;;;;;;25.03;15.87;;;;;;;18.47;100.00;102150.25;5014088;28;20030;-83
2023/06/23 07:56:45;;;;;;;25.83;14.82;;;;;;;18.51;100.00;102154.22;4998795;28;20046;-83
2023/06/23 07:59:11;;;;;;;23.27;15.13;;;;;;;18.59;100.00;102148.38;5015295;28;20540;-83
2023/06/23 08:01:36;;;;;;;22.40;14.80;;;;;;;18.66;100.00;102146.38;5013923;28;20113;-83
2023/06/23 08:04:05;;;;;;;24.70;14.93;;;;;;;18.73;100.00;102147.09;5013646;28;20029;-83
2023/06/23 08:06:30;;;;;;;24.17;15.70;;;;;;;18.79;100.00;102149.94;4998425;28;20065;-83
2023/06/23 08:08:55;;;;;;;28.57;15.17;;;;;;;18.77;100.00;102156.50;5014020;28;20038;-83
2023/06/23 08:11:24;;;;;;;21.27;13.43;;;;;;;18.81;100.00;102151.38;5013671;28;20540;-83
2023/06/23 08:13:50;;;;;;;22.03;14.33;;;;;;;18.86;100.00;102150.69;5013968;28;20060;-83
2023/06/23 08:16:16;;;;;;;21.25;14.75;;;;;;;18.91;100.00;102157.16;5013291;28;20099;-83
2023/06/23 08:18:41;;;;;;;18.92;13.95;;;;;;;18.98;100.00;102157.00;4997296;28;20533;-83
2023/06/23 08:21:07;;;;;;;20.70;13.20;;;;;;;19.07;100.00;102150.09;4997579;28;20494;-83
2023/06/23 08:23:32;;;;;;;20.43;15.67;;;;;;;19.16;100.00;102153.28;4981002;28;20033;-83
2023/06/23 08:25:58;;;;;;;21.95;15.02;;;;;;;19.21;100.00;102158.09;4997225;28;20056;-82
2023/06/23 08:28:23;;;;;;;19.60;13.73;;;;;;;19.23;100.00;102155.91;5015453;28;20038;-83
2023/06/23 08:30:49;;;;;;;19.33;11.83;;;;;;;19.28;100.00;102159.63;5014547;28;20058;-83
2023/06/23 08:33:14;;;;;;;16.37;11.40;;;;;;;19.35;100.00;102164.97;5014773;28;20037;-83
2023/06/23 08:35:39;;;;;;;17.05;11.38;;;;;;;19.40;100.00;102158.72;4997102;28;20029;-83
2023/06/23 08:38:05;;;;;;;16.10;12.77;;;;;;;19.46;100.00;102163.28;5013344;28;20034;-82
2023/06/23 08:40:31;;;;;;;16.60;12.07;;;;;;;19.59;100.00;102167.66;5014403;28;20038;-82
2023/06/23 08:42:57;;;;;;;17.05;11.32;;;;;;;19.70;100.00;102168.72;4995956;28;20064;-83
2023/06/23 08:45:25;;;;;;;15.63;10.70;;;;;;;19.77;100.00;102178.50;4980502;28;20041;-82
2023/06/23 08:47:57;;;;;;;15.57;10.45;;;;;;;19.91;100.00;102179.06;5013043;28;20030;-83
2023/06/23 08:50:22;;;;;;;13.98;9.70;;;;;;;20.03;98.99;102176.25;5012841;28;20061;-83
2023/06/23 08:52:48;;;;;;;15.63;10.75;;;;;;;20.15;99.25;102185.31;5014176;28;20072;-83
2023/06/23 08:55:15;;;;;;;13.60;10.47;;;;;;;20.29;98.17;102182.25;5013160;28;20042;-82
2023/06/23 08:57:40;;;;;;;12.98;9.98;;;;;;;20.36;96.57;102184.84;5013963;28;20031;-82
2023/06/23 09:00:07;;;;;;;14.77;10.73;;;;;;;20.39;95.10;102184.34;5013062;28;20029;-82
2023/06/23 09:02:33;;;;;;;11.60;8.13;;;;;;;20.45;93.97;102194.38;4996454;28;20038;-82
2023/06/23 09:04:59;;;;;;;9.82;7.40;;;;;;;20.49;89.34;102190.88;5014115;28;20085;-83
2023/06/23 09:07:26;;;;;;;9.57;7.50;;;;;;;20.56;88.70;102189.88;5013010;28;20042;-82
2023/06/23 09:09:52;;;;;;;10.50;8.52;;;;;;;20.70;92.72;102194.00;4996198;28;20034;-82
2023/06/23 09:12:21;;;;;;;8.38;7.13;;;;;;;;;;5013895;28;20493;-82
2023/06/23 09:14:51;;;;;;;12.48;7.70;;;;;;;20.87;89.16;102198.66;5013898;28;20541;-82
2023/06/23 09:17:18;;;;;;;11.17;7.70;;;;;;;20.93;87.93;102194.91;4996523;28;20087;-82
2023/06/23 09:19:49;;;;;;;11.50;7.35;;;;;;;21.01;89.30;102198.06;4980131;28;20041;-82
2023/06/23 09:22:17;;;;;;;9.05;6.75;;;;;;;21.11;85.65;102207.56;4997390;28;20512;-83
2023/06/23 09:24:46;;;;;;;10.00;7.43;;;;;;;21.17;85.38;102203.78;5012453;28;20034;-82
2023/06/23 09:27:12;;;;;;;12.07;7.80;;;;;;;21.27;85.07;102203.94;5012677;28;20037;-82
2023/06/23 09:29:37;;;;;;;9.17;7.60;;;;;;;21.36;85.85;102209.84;5011795;28;20034;-82
2023/06/23 09:32:04;;;;;;;11.70;7.23;;;;;;;21.50;83.85;102211.19;4996165;28;20025;-82
2023/06/23 09:34:31;;;;;;;9.27;6.82;;;;;;;21.67;84.34;102210.28;5013994;28;20069;-82
2023/06/23 09:37:11;;;;;;;12.40;7.72;;;;;;;21.97;84.85;102214.50;5012297;28;20041;-82
2023/06/23 09:39:38;;;;;;;8.60;7.07;;;;;;;22.31;83.24;102226.19;5011758;28;20032;-82
2023/06/23 09:42:11;;;;;;;8.77;6.00;;;;;;;22.37;77.61;102227.13;5012091;28;20057;-82
2023/06/23 09:44:39;;;;;;;10.30;6.63;;;;;;;22.42;76.53;102229.94;5012901;28;20462;-82
2023/06/23 09:47:05;;;;;;;7.32;5.93;;;;;;;22.48;75.93;102228.03;4995825;28;20040;-82
2023/06/23 09:49:41;;;;;;;10.23;6.75;;;;;;;22.55;78.30;102221.19;5012274;28;20033;-83
2023/06/23 09:52:12;;;;;;;9.02;6.60;;;;;;;22.65;75.50;102219.59;5013583;28;20160;-82
2023/06/23 09:54:39;;;;;;;9.13;6.90;;;;;;;22.77;73.96;102223.03;5013568;28;20113;-82
2023/06/23 09:57:12;;;;;;;8.43;6.30;;;;;;;23.07;76.78;102221.59;5012215;28;20041;-82
2023/06/23 09:59:39;;;;;;;11.23;6.57;;;;;;;23.41;73.81;102224.84;5012149;28;20394;-82
2023/06/23 10:02:07;;;;;;;8.45;6.30;;;;;;;23.38;71.38;102216.25;5012249;28;20030;-82
2023/06/23 10:04:36;;;;;;;8.40;6.70;;;;;;;23.29;73.31;102214.00;5012273;28;20034;-82
2023/06/23 10:07:20;;;;;;;9.73;7.47;;;;;;;23.33;75.40;102207.94;5012071;28;20177;-83
2023/06/23 10:09:51;;;;;;;12.83;6.27;;;;;;;23.53;71.94;102212.72;5012638;28;20094;-82
2023/06/23 10:12:25;;;;;;;7.70;6.07;;;;;;;23.71;70.43;102217.81;5012103;28;20165;-83
2023/06/23 10:14:52;;;;;;;8.80;6.50;;;;;;;23.78;68.24;102210.06;5013571;28;20030;-82
2023/06/23 10:17:20;;;;;;;13.50;6.63;;;;;;;24.16;68.77;102212.69;5011879;28;20556;-82
2023/06/23 10:19:50;;;;;;;8.40;6.15;;;;;;;24.59;66.41;102218.84;5013229;28;20026;-82
2023/06/23 10:22:18;;;;;;;9.03;6.53;;;;;;;24.85;65.34;102213.31;5012279;28;20041;-82
2023/06/23 10:24:48;;;;;;;9.95;6.60;;;;;;;25.22;64.13;102220.44;5011887;28;20220;-82
2023/06/23 10:27:24;;;;;;;9.93;6.28;;;;;;;25.28;64.23;102218.50;5012874;28;20038;-82
2023/06/23 10:29:54;;;;;;;7.93;5.43;;;;;;;25.09;63.71;102226.59;5013318;28;20124;-82
2023/06/23 10:32:23;;;;;;;8.70;6.43;;;;;;;25.06;61.23;102216.03;4995834;28;20088;-82
2023/06/23 10:34:50;;;;;;;6.63;5.30;;;;;;;25.22;61.15;102218.50;5013163;28;20173;-82
2023/06/23 10:37:23;;;;;;;8.02;6.40;;;;;;;25.34;62.43;102220.16;5011848;28;20026;-82
2023/06/23 10:39:59;;;;;;;7.22;5.80;;;;;;;25.30;62.31;102214.31;5012474;28;20026;-82
2023/06/23 10:42:27;;;;;;;7.75;5.55;;;;;;;25.44;59.52;102228.47;5015185;28;20061;-82
2023/06/23 10:44:54;;;;;;;9.40;5.88;;;;;;;25.82;59.92;102226.09;5014909;28;20045;-83
2023/06/23 10:47:19;;;;;;;7.80;5.60;;;;;;;26.36;59.06;102218.00;5015225;28;20108;-82
2023/06/23 10:49:46;;;;;;;6.95;5.57;;;;;;;26.49;57.42;102224.84;5015360;28;20058;-82
2023/06/23 10:52:13;;;;;;;6.10;5.50;;;;;;;26.36;57.83;102224.38;5015127;28;20445;-84
2023/06/23 10:54:39;;;;;;;7.60;5.90;;;;;;;26.55;58.99;102229.25;5015127;28;20088;-83
2023/06/23 10:57:14;;;;;;;9.40;6.43;;;;;;;26.85;58.23;102230.13;5015305;28;20038;-83
2023/06/23 10:59:59;;;;;;;8.00;5.23;;;;;;;27.15;55.00;102226.22;5017117;28;20030;-83
2023/06/23 11:02:25;;;;;;;9.57;6.22;;;;;;;27.34;51.83;102229.06;5015340;28;20025;-83
2023/06/23 11:04:52;;;;;;;7.97;5.55;;;;;;;27.75;53.17;102223.00;5016138;28;20032;-83
2023/06/23 11:07:18;;;;;;;9.90;4.85;;;;;;;27.92;50.43;102228.06;5015099;28;20022;-84
2023/06/23 11:10:01;;;;;;;4.90;4.20;;;;;;;27.87;50.75;102236.50;5014590;28;20046;-83
2023/06/23 11:12:38;;;;;;;6.45;5.22;;;;;;;27.73;49.06;102230.03;5015004;28;20030;-83
2023/06/23 11:15:20;;;;;;;7.93;6.18;;;;;;;27.97;50.68;102232.78;5015133;28;20473;-83